createdAt,value
2018-10-09T16:51:36.503Z,16.83
2018-10-09T16:54:05.681Z,17.07
2018-10-09T16:56:34.474Z,16.95
2018-10-09T16:59:03.120Z,17.52
2018-10-09T17:01:32.212Z,16.50
2018-10-09T17:04:01.467Z,16.57
2018-10-09T17:06:30.115Z,17.40
2018-10-09T17:08:59.243Z,17.52
2018-10-09T17:11:27.965Z,18.20
2018-10-09T17:13:56.169Z,17.92
2018-10-09T17:16:24.834Z,18.82
2018-10-09T17:18:53.301Z,20.15
2018-10-09T17:21:21.674Z,19.53
2018-10-09T17:23:50.269Z,17.83
2018-10-09T17:26:19.503Z,19.33
2018-10-09T17:28:48.211Z,19.87
2018-10-09T17:31:16.702Z,20.17
2018-10-09T17:33:45.286Z,30.20
2018-10-09T17:36:13.842Z,22.23
2018-10-09T17:38:42.383Z,20.40
2018-10-09T17:41:11.130Z,19.80
2018-10-09T17:43:39.690Z,20.90
2018-10-09T17:46:08.350Z,20.93
2018-10-09T17:48:36.841Z,21.20
2018-10-09T17:51:05.370Z,20.80
2018-10-09T17:53:35.133Z,20.40
2018-10-09T17:56:03.681Z,20.60
2018-10-09T17:58:33.886Z,20.33
2018-10-09T18:01:02.636Z,21.37
2018-10-09T18:03:30.920Z,21.13
2018-10-09T18:05:59.149Z,21.70
2018-10-09T18:08:27.347Z,21.17
2018-10-09T18:10:55.725Z,21.93
2018-10-09T18:13:24.397Z,21.33
2018-10-09T18:15:53.891Z,20.77
2018-10-09T18:18:22.390Z,21.00
2018-10-09T18:20:52.595Z,21.57
2018-10-09T18:23:21.121Z,22.43
2018-10-09T18:25:49.866Z,22.60
2018-10-09T18:28:19.014Z,21.80
2018-10-09T18:30:47.554Z,21.67
2018-10-09T18:33:15.767Z,21.87
2018-10-09T18:35:43.970Z,22.83
2018-10-09T18:38:12.128Z,24.50
2018-10-09T18:40:40.399Z,22.20
2018-10-09T18:43:08.484Z,23.70
2018-10-09T18:45:36.657Z,24.50
2018-10-09T18:48:04.831Z,24.27
2018-10-09T18:50:32.996Z,31.77
2018-10-09T18:53:01.180Z,28.20
2018-10-09T18:55:29.355Z,27.50
2018-10-09T18:57:57.504Z,26.80
2018-10-09T19:00:25.652Z,27.37
2018-10-09T19:02:53.811Z,26.83
2018-10-09T19:05:21.984Z,27.30
2018-10-09T19:07:50.159Z,31.37
2018-10-09T19:10:18.316Z,34.47
2018-10-09T19:12:46.506Z,29.80
2018-10-09T19:15:14.667Z,27.27
2018-10-09T19:17:42.891Z,27.17
2018-10-09T19:20:11.064Z,26.87
2018-10-09T19:22:39.240Z,28.53
2018-10-09T19:25:07.622Z,28.83
2018-10-09T19:27:35.793Z,28.47
2018-10-09T19:30:03.993Z,28.03
2018-10-09T19:32:32.237Z,27.43
2018-10-09T19:35:00.345Z,29.10
2018-10-09T19:37:28.538Z,29.93
2018-10-09T19:39:56.735Z,28.53
2018-10-09T19:42:24.909Z,29.43
2018-10-09T19:44:53.068Z,29.43
2018-10-09T19:47:21.263Z,30.50
2018-10-09T19:49:49.537Z,30.00
2018-10-09T19:52:17.707Z,30.80
2018-10-09T19:54:45.888Z,30.67
2018-10-09T19:57:14.059Z,31.00
2018-10-09T19:59:42.209Z,30.40
2018-10-09T20:02:10.423Z,31.27
2018-10-09T20:04:38.824Z,32.57
2018-10-09T20:07:06.980Z,31.17
2018-10-09T20:09:35.142Z,31.50
2018-10-09T20:12:03.313Z,30.47
2018-10-09T20:14:31.508Z,35.07
2018-10-09T20:16:59.704Z,33.07
2018-10-09T20:19:27.885Z,32.33
2018-10-09T20:21:56.073Z,33.03
2018-10-09T20:24:24.258Z,31.03
2018-10-09T20:26:52.440Z,31.37
2018-10-09T20:29:20.605Z,32.00
2018-10-09T20:31:48.776Z,30.40
2018-10-09T20:34:17.090Z,29.80
2018-10-09T20:36:45.286Z,30.73
2018-10-09T20:39:13.497Z,30.73
2018-10-09T20:41:41.753Z,29.50
2018-10-09T20:44:09.934Z,29.20
2018-10-09T20:46:38.081Z,29.60
2018-10-09T20:49:06.626Z,30.03
2018-10-09T20:51:34.806Z,31.30
2018-10-09T20:54:02.972Z,29.87
2018-10-09T20:56:31.146Z,28.83
2018-10-09T20:58:59.458Z,29.77
